Latest Weather Observations for Mount Nowa Nowa

IDV60801

Issued at 9:32 pm EDT Thursday 19 January 2017 (issued every 30 minutes, with the page automatically refreshed every 10 minutes)

About weather observations | Map of weather stations | Latest weather observations for VIC | Other Formats
Station Details ID: 084144 Name: MOUNT NOWA NOWA Lat: -37.69 Lon: 148.09 Height: 350.0 m
Data from the previous 72 hours. | See also: Recent months at Mount Nowa Nowa
Date/Time
EDT
Temp
°C
App
Temp
°C
Dew
Point
°C
Rel
Hum
%
Delta-T
°C
Wind Press
QNH
hPa
Press
MSL
hPa
Rain since
9am
mm
Dir  Spd
km/h
Gust
km/h
Spd
kts
Gust
kts
19/09:30pm 18.1 19.3 14.8 81 1.9 WSW 2 6 1 3 - - 0.0
19/09:00pm 18.1 19.0 15.0 82 1.8 WSW 4 6 2 3 - - 0.0
19/08:30pm 18.8 20.0 14.9 78 2.3 WSW 2 6 1 3 - - 0.0
19/08:00pm 19.6 21.2 14.8 74 2.8 CALM 0 0 0 0 - - 0.0
19/07:30pm 20.0 21.1 14.6 71 3.2 SE 2 4 1 2 - - 0.0
19/07:00pm 21.0 21.3 14.4 66 3.9 SSE 6 9 3 5 - - 0.0
19/06:30pm 21.8 22.0 14.2 62 4.5 SE 6 13 3 7 - - 0.0
19/06:00pm 22.1 22.2 14.0 60 4.8 ESE 6 15 3 8 - - 0.0
19/05:30pm 22.0 22.2 14.1 61 4.7 SE 6 13 3 7 - - 0.0
19/05:00pm 22.1 22.0 14.0 60 4.8 ESE 7 15 4 8 - - 0.0
19/04:30pm 21.6 21.1 13.8 61 4.6 ESE 9 20 5 11 - - 0.0
19/04:00pm 21.3 20.7 13.5 61 4.6 SE 9 20 5 11 - - 0.0
19/03:30pm 22.0 21.4 13.4 58 5.0 SE 9 24 5 13 - - 0.0
19/03:00pm 21.9 21.0 12.7 56 5.3 ESE 9 24 5 13 - - 0.0
19/02:30pm 21.6 21.2 13.0 58 5.0 SE 7 19 4 10 - - 0.0
19/02:00pm 20.9 19.9 12.3 58 4.9 SE 9 24 5 13 - - 0.0
19/01:30pm 20.9 20.0 11.5 55 5.3 ESE 7 17 4 9 - - 0.0
19/01:00pm 21.0 20.0 11.1 53 5.5 ESE 7 17 4 9 - - 0.0
19/12:30pm 21.3 19.9 9.5 47 6.4 ESE 7 13 4 7 - - 0.0
19/12:00pm 19.9 18.2 7.6 45 6.4 ESE 6 15 3 8 - - 0.0
19/11:30am 19.3 17.4 7.7 47 6.0 E 7 13 4 7 - - 0.0
19/11:00am 18.7 16.8 6.9 46 6.0 E 6 13 3 7 - - 0.0
19/10:30am 17.9 15.9 7.3 50 5.4 ESE 7 17 4 9 - - 0.0
19/10:00am 17.5 16.0 8.4 55 4.7 E 6 17 3 9 - - 0.0
19/09:30am 16.0 14.3 8.5 61 3.9 ESE 7 15 4 8 - - 0.0
19/09:00am 15.4 13.8 8.2 62 3.7 E 6 13 3 7 - - 0.0
19/08:30am 15.8 14.7 8.5 62 3.8 E 4 9 2 5 - - 0.0
19/08:00am 13.9 12.8 8.3 69 2.9 ESE 4 9 2 5 - - 0.0
19/07:30am 13.1 11.5 8.0 71 2.6 E 6 7 3 4 - - 0.0
19/07:00am 11.9 10.1 7.2 73 2.3 E 6 9 3 5 - - 0.0
19/06:30am 11.0 9.5 6.9 76 2.0 E 4 7 2 4 - - 0.0
19/06:00am 11.3 9.4 6.8 74 2.2 E 6 9 3 5 - - 0.0
19/05:30am 10.9 9.3 8.0 82 1.4 E 6 9 3 5 - - 0.0
19/05:00am 11.5 9.9 7.8 78 1.8 ENE 6 9 3 5 - - 0.0
19/04:30am 11.4 10.2 8.1 80 1.6 E 4 7 2 4 - - 0.0
19/04:00am 11.3 10.1 8.2 81 1.5 ENE 4 6 2 3 - - 0.0
19/03:30am 11.5 10.8 8.4 81 1.6 NE 2 4 1 2 - - 0.0
19/03:00am 11.5 11.1 8.2 80 1.6 CALM 0 0 0 0 - - 0.0
19/02:30am 11.6 10.8 8.1 79 1.7 SSE 2 2 1 1 - - 0.0
19/02:00am 11.7 10.5 8.2 79 1.8 SSE 4 6 2 3 - - 0.0
19/01:30am 12.0 10.5 8.3 78 1.9 SSE 6 7 3 4 - - 0.0
19/01:00am 12.2 10.8 8.7 79 1.8 SSE 6 7 3 4 - - 0.0
19/12:30am 12.3 10.9 8.8 79 1.8 SSE 6 7 3 4 - - 0.0
19/12:00am 12.3 10.9 9.0 80 1.7 SSE 6 9 3 5 - - 0.0
 
Date/Time
EDT
Temp
°C
App
Temp
°C
Dew
Point
°C
Rel
Hum
%
Delta-T
°C
Wind Press
QNH
hPa
Press
MSL
hPa
Rain since
9am
mm
Dir  Spd
km/h
Gust
km/h
Spd
kts
Gust
kts
18/11:30pm 12.6 11.4 9.4 81 1.7 SSE 6 9 3 5 - - 0.0
18/11:00pm 12.5 11.2 9.3 81 1.6 SSE 6 9 3 5 - - 0.0
18/10:30pm 12.7 11.2 9.3 80 1.8 S 7 15 4 8 - - 0.0
18/10:00pm 13.1 11.9 9.4 78 1.9 S 6 13 3 7 - - 0.0
18/09:30pm 13.2 11.8 9.5 78 1.9 SSE 7 13 4 7 - - 0.0
18/09:00pm 13.3 11.9 9.4 77 2.0 S 7 13 4 7 - - 0.0
18/08:30pm 13.8 12.4 9.5 75 2.2 S 7 17 4 9 - - 0.0
18/08:00pm 14.7 13.3 9.5 71 2.7 SSW 7 13 4 7 - - 0.0
18/07:30pm 15.5 13.9 8.7 64 3.5 S 7 19 4 10 - - 0.0
18/07:00pm 16.9 15.3 8.6 58 4.3 SSW 7 15 4 8 - - 0.0
18/06:30pm 17.4 15.3 8.3 55 4.7 SSW 9 19 5 10 - - 0.0
18/06:00pm 17.8 15.5 8.9 56 4.7 SSW 11 24 6 13 - - 0.0
18/05:30pm 18.0 16.0 8.8 55 4.9 SW 9 20 5 11 - - 0.0
18/05:00pm 17.9 15.8 9.8 59 4.4 SSW 11 22 6 12 - - 0.0
18/04:30pm 19.4 17.9 10.4 56 4.9 S 9 24 5 13 - - 0.0
18/04:00pm 18.5 16.6 10.6 60 4.3 SSW 11 24 6 13 - - 0.0
18/03:30pm 18.5 16.2 10.6 60 4.3 SW 13 22 7 12 - - 0.0
18/03:00pm 17.4 15.9 10.5 64 3.7 SSW 9 24 5 13 - - 0.0
18/02:30pm 18.6 16.9 9.9 57 4.7 SSW 9 20 5 11 - - 0.0
18/02:00pm 16.0 14.7 9.9 67 3.2 SW 7 17 4 9 - - 0.0
18/01:30pm 15.3 13.7 10.1 71 2.8 SSW 9 20 5 11 - - 0.0
18/01:00pm 15.6 14.4 10.2 70 2.9 SSW 7 17 4 9 - - 0.0
18/12:30pm 15.9 14.8 10.0 68 3.1 SSW 6 13 3 7 - - 0.0
18/12:00pm 15.9 14.9 10.4 70 3.0 SW 6 15 3 8 - - 0.0
18/11:30am 15.3 14.2 10.7 74 2.5 WSW 7 19 4 10 - - 0.0
18/11:00am 14.9 14.0 10.7 76 2.3 WSW 6 15 3 8 - - 0.0
18/10:30am 14.4 13.1 11.4 82 1.6 WSW 9 20 5 11 - - 0.0
18/10:00am 14.3 13.1 12.9 91 0.8 WSW 11 22 6 12 - - 0.0
18/09:30am 15.5 15.2 13.2 86 1.3 SW 7 20 4 11 - - 0.0
18/09:00am 16.1 14.9 12.8 81 1.9 WSW 11 26 6 14 - - 0.0
18/08:30am 17.2 16.7 13.9 81 1.9 WSW 9 20 5 11 - - 0.0
18/08:00am 17.1 16.4 14.2 83 1.7 SW 11 20 6 11 - - 0.0
18/07:30am 18.5 16.9 12.9 70 3.2 SW 13 30 7 16 - - 0.0
18/07:00am 18.8 16.2 10.6 59 4.5 W 15 28 8 15 - - 0.0
18/06:30am 19.1 16.0 10.4 57 4.8 NNW 17 30 9 16 - - 0.0
18/06:00am 19.0 18.1 10.6 58 4.6 WNW 6 13 3 7 - - 0.0
18/05:30am 19.5 18.4 10.8 57 4.8 W 7 11 4 6 - - 0.0
18/05:00am 19.7 18.7 10.9 57 4.9 W 7 13 4 7 - - 0.0
18/04:30am 19.4 17.8 11.4 60 4.5 W 11 19 6 10 - - 0.0
18/04:00am 19.7 19.0 12.0 61 4.4 W 7 9 4 5 - - 0.0
18/03:30am 19.4 18.6 11.7 61 4.3 W 7 9 4 5 - - 0.0
18/03:00am 19.6 18.8 11.6 60 4.5 W 7 9 4 5 - - 0.0
18/02:30am 19.8 19.2 11.6 59 4.6 SW 6 9 3 5 - - 0.0
18/02:00am 20.6 18.6 11.5 56 5.1 SSW 13 24 7 13 - - 0.0
18/01:30am 21.2 19.7 11.8 55 5.3 SW 11 22 6 12 - - 0.0
18/01:00am 23.0 20.5 11.1 47 6.7 SSE 15 24 8 13 - - 0.0
18/12:30am 23.9 20.6 9.5 40 8.0 SSE 17 33 9 18 - - 0.0
18/12:00am 24.3 21.5 8.7 37 8.5 SE 13 28 7 15 - - 0.0
 
Date/Time
EDT
Temp
°C
App
Temp
°C
Dew
Point
°C
Rel
Hum
%
Delta-T
°C
Wind Press
QNH
hPa
Press
MSL
hPa
Rain since
9am
mm
Dir  Spd
km/h
Gust
km/h
Spd
kts
Gust
kts
17/11:30pm 24.3 22.9 8.7 37 8.5 ESE 6 11 3 6 - - 0.0
17/11:00pm 24.0 22.8 8.0 36 8.6 ESE 4 6 2 3 - - 0.0
17/10:30pm 23.9 22.5 8.7 38 8.3 ESE 6 9 3 5 - - 0.0
17/10:00pm 23.9 22.0 9.1 39 8.1 E 9 17 5 9 - - 0.0
17/09:30pm 24.1 22.6 9.3 39 8.2 E 7 13 4 7 - - 0.0
17/09:00pm 24.2 23.1 10.1 41 7.9 ESE 6 7 3 4 - - 0.0
17/08:30pm 24.8 23.7 9.9 39 8.3 E 6 9 3 5 - - 0.0
17/08:00pm 25.5 24.6 10.5 39 8.5 E 6 11 3 6 - - 0.0
17/07:30pm 27.1 25.9 9.5 33 9.9 E 6 7 3 4 - - 0.0
17/07:00pm 28.2 27.1 9.9 32 10.4 E 6 11 3 6 - - 0.0
17/06:30pm 28.7 27.6 9.9 31 10.7 ENE 6 9 3 5 - - 0.0
17/06:00pm 28.3 27.7 10.5 33 10.2 E 4 9 2 5 - - 0.0
17/05:30pm 28.8 28.3 10.9 33 10.4 SE 4 15 2 8 - - 0.0
17/05:00pm 28.7 27.2 10.4 32 10.5 SE 9 19 5 10 - - 0.0
17/04:30pm 28.3 26.5 9.6 31 10.6 SE 9 17 5 9 - - 0.0
17/04:00pm 28.4 26.9 10.6 33 10.2 SE 9 17 5 9 - - 0.0
17/03:30pm 30.1 28.5 11.6 32 10.9 SE 11 22 6 12 - - 0.0
17/03:00pm 29.6 28.3 11.2 32 10.7 SSE 9 19 5 10 - - 0.0
17/02:30pm 33.1 31.3 11.0 26 13.1 SSW 11 20 6 11 - - 0.0
17/02:00pm 37.8 33.3 -0.5 9 19.4 WNW 13 24 7 13 - - 0.0
17/01:30pm 36.8 31.8 -1.2 9 18.9 WNW 15 30 8 16 - - 0.0
17/01:00pm 36.2 31.5 1.1 11 18.0 W 15 32 8 17 - - 0.0
17/12:30pm 35.3 32.2 3.8 14 16.8 NW 9 17 5 9 - - 0.0
17/12:00pm 33.9 29.5 2.7 14 16.2 NW 15 33 8 18 - - 0.0
17/11:30am 31.5 28.1 5.8 20 13.9 WNW 13 32 7 17 - - 0.0
17/11:00am 30.2 28.1 9.7 28 11.7 NW 11 20 6 11 - - 0.0
17/10:30am 27.9 25.0 9.7 32 10.3 NW 15 22 8 12 - - 0.0
17/10:00am 27.3 24.3 9.2 32 10.1 NW 15 24 8 13 - - 0.0
17/09:30am 26.3 23.9 8.8 33 9.7 NW 11 19 6 10 - - 0.0
17/09:00am 26.7 23.6 7.2 29 10.5 NW 13 20 7 11 - - 0.0
17/08:30am 26.2 23.1 5.7 27 10.7 NW 11 15 6 8 - - 0.0
17/08:00am 26.1 23.0 5.7 27 10.7 NW 11 15 6 8 - - 0.0
17/07:30am 24.6 21.7 6.4 31 9.6 WNW 11 13 6 7 - - 0.0
17/07:00am 24.2 21.3 6.5 32 9.3 WNW 11 20 6 11 - - 0.0
17/06:30am 23.8 21.1 7.4 35 8.7 WNW 11 17 6 9 - - 0.0
17/06:00am 24.0 21.0 7.6 35 8.8 WNW 13 20 7 11 - - 0.0
17/05:30am 23.3 20.1 8.6 39 8.0 NW 15 24 8 13 - - 0.0
17/05:00am 22.1 18.7 9.3 44 7.0 NNW 17 32 9 17 - - 0.0
17/04:30am 22.1 18.2 9.6 45 6.9 NNW 20 30 11 16 - - 0.0
17/04:00am 22.1 18.3 9.9 46 6.7 NNW 20 30 11 16 - - 0.0
17/03:30am 23.0 19.3 10.1 44 7.2 NW 20 32 11 17 - - 0.0
17/03:00am 22.4 18.9 10.9 48 6.5 NW 20 32 11 17 - - 0.0
17/02:30am 21.3 18.3 11.9 55 5.3 NNW 19 30 10 16 - - 0.0
17/02:00am 21.6 18.7 12.2 55 5.4 NNW 19 30 10 16 - - 0.0
17/01:30am 21.2 18.2 12.1 56 5.2 NNW 19 30 10 16 - - 0.0
17/01:00am 21.8 18.7 9.0 44 6.9 N 15 24 8 13 - - 0.0
17/12:30am 21.1 19.4 9.7 48 6.2 NNE 9 17 5 9 - - 0.0
17/12:00am 21.0 20.1 13.7 63 4.3 ENE 11 17 6 9 - - 0.0
 
Date/Time
EDT
Temp
°C
App
Temp
°C
Dew
Point
°C
Rel
Hum
%
Delta-T
°C
Wind Press
QNH
hPa
Press
MSL
hPa
Rain since
9am
mm
Dir  Spd
km/h
Gust
km/h
Spd
kts
Gust
kts
16/11:30pm 20.8 19.4 12.2 58 4.9 E 11 19 6 10 - - 0.0
16/11:00pm 21.2 19.4 9.4 47 6.4 ENE 9 17 5 9 - - 0.0
16/10:30pm 21.1 19.3 9.4 47 6.4 ENE 9 13 5 7 - - 0.0
16/10:00pm 21.0 19.3 9.9 49 6.1 E 9 13 5 7 - - 0.0

Other Formats:

Comma delimited format used in spreadsheet applications
http://www.bom.gov.au/fwo/IDV60801/IDV60801.94930.axf

JavaScript Object Notation format (JSON) in row-major order
http://www.bom.gov.au/fwo/IDV60801/IDV60801.94930.json